Ward, Alabama
Current Conditions -  °F | °C
As of 2:15 PM on Thursday 23 Oct 2014 (Local Time) from KDYA Reporting Station
Clear Clear  
Wind Chill: 22°   Ceiling: Unl
Heat Index: 22°   Visibility: 10mi
Dew Point:   Wind: 3mph
Humidity: 27%   Direction: 80°E
Pressure: 30.07"   Gusts: NA
Location:  32.36°N, 88.28°W
Report Text: KDYA 231915Z AUTO 08003KT 10SM CLR 22/02 A3007 RMK AO2 T02240023
Loading
Personal Weather Stations






























Interactive Weather Map
Tropical Storm Tracking
New forecast layout! Learn more

10-Day Weather Forecast

Advertisements
Track Severe Weather on mobile